sensor_id;sensor_type;location;lat;lon;timestamp;temperature;humidity
48575;DHT22;34352;51.084;3.712;2023-04-26T00:01:32;4.60;4.00
48575;DHT22;34352;51.084;3.712;2023-04-26T00:03:59;4.60;6.60
48575;DHT22;34352;51.084;3.712;2023-04-26T00:06:26;4.50;8.10
48575;DHT22;34352;51.084;3.712;2023-04-26T00:08:52;4.50;3.10
48575;DHT22;34352;51.084;3.712;2023-04-26T00:11:18;4.70;2.90
48575;DHT22;34352;51.084;3.712;2023-04-26T00:13:44;4.50;5.00
48575;DHT22;34352;51.084;3.712;2023-04-26T00:16:12;4.50;7.20
48575;DHT22;34352;51.084;3.712;2023-04-26T00:18:38;4.40;13.10
48575;DHT22;34352;51.084;3.712;2023-04-26T00:21:03;4.30;13.90
48575;DHT22;34352;51.084;3.712;2023-04-26T00:23:30;4.30;14.30
48575;DHT22;34352;51.084;3.712;2023-04-26T00:25:56;4.30;15.70
48575;DHT22;34352;51.084;3.712;2023-04-26T00:28:22;4.20;17.30
48575;DHT22;34352;51.084;3.712;2023-04-26T00:30:48;4.30;18.70
48575;DHT22;34352;51.084;3.712;2023-04-26T00:33:15;4.20;20.40
48575;DHT22;34352;51.084;3.712;2023-04-26T00:35:41;4.20;20.40
48575;DHT22;34352;51.084;3.712;2023-04-26T00:38:07;4.10;20.00
48575;DHT22;34352;51.084;3.712;2023-04-26T00:40:33;4.10;19.70
48575;DHT22;34352;51.084;3.712;2023-04-26T00:42:59;4.10;21.10
48575;DHT22;34352;51.084;3.712;2023-04-26T00:45:26;4.10;22.50
48575;DHT22;34352;51.084;3.712;2023-04-26T00:47:52;4.00;23.30
48575;DHT22;34352;51.084;3.712;2023-04-26T00:50:19;3.90;24.60
48575;DHT22;34352;51.084;3.712;2023-04-26T00:52:46;3.90;24.90
48575;DHT22;34352;51.084;3.712;2023-04-26T00:55:12;3.90;25.10
48575;DHT22;34352;51.084;3.712;2023-04-26T00:57:39;4.70;24.90
48575;DHT22;34352;51.084;3.712;2023-04-26T01:00:05;3.90;24.60
48575;DHT22;34352;51.084;3.712;2023-04-26T01:02:32;3.80;23.90
48575;DHT22;34352;51.084;3.712;2023-04-26T01:04:58;3.90;23.70
48575;DHT22;34352;51.084;3.712;2023-04-26T01:07:23;3.80;24.50
48575;DHT22;34352;51.084;3.712;2023-04-26T01:09:51;3.70;27.20
48575;DHT22;34352;51.084;3.712;2023-04-26T01:12:21;3.60;30.40
48575;DHT22;34352;51.084;3.712;2023-04-26T01:14:48;3.60;33.50
48575;DHT22;34352;51.084;3.712;2023-04-26T01:17:13;3.70;35.00
48575;DHT22;34352;51.084;3.712;2023-04-26T01:19:48;3.70;33.90
48575;DHT22;34352;51.084;3.712;2023-04-26T01:22:13;3.70;34.50
48575;DHT22;34352;51.084;3.712;2023-04-26T01:24:49;3.70;34.70
48575;DHT22;34352;51.084;3.712;2023-04-26T01:27:16;3.70;35.70
48575;DHT22;34352;51.084;3.712;2023-04-26T01:29:42;3.70;34.20
48575;DHT22;34352;51.084;3.712;2023-04-26T01:32:08;4.20;33.60
48575;DHT22;34352;51.084;3.712;2023-04-26T01:34:40;3.60;33.90
48575;DHT22;34352;51.084;3.712;2023-04-26T01:37:39;3.60;36.10
48575;DHT22;34352;51.084;3.712;2023-04-26T01:40:06;3.50;40.40
48575;DHT22;34352;51.084;3.712;2023-04-26T01:43:09;3.50;41.00
48575;DHT22;34352;51.084;3.712;2023-04-26T01:45:38;3.50;40.30
48575;DHT22;34352;51.084;3.712;2023-04-26T01:48:04;3.50;38.30
48575;DHT22;34352;51.084;3.712;2023-04-26T01:50:31;3.40;36.90
48575;DHT22;34352;51.084;3.712;2023-04-26T01:52:56;3.40;36.40
48575;DHT22;34352;51.084;3.712;2023-04-26T01:55:22;3.30;35.30
48575;DHT22;34352;51.084;3.712;2023-04-26T01:57:48;3.30;36.40
48575;DHT22;34352;51.084;3.712;2023-04-26T02:00:13;3.20;38.20
48575;DHT22;34352;51.084;3.712;2023-04-26T02:02:39;3.20;39.10
48575;DHT22;34352;51.084;3.712;2023-04-26T02:05:07;3.20;39.50
48575;DHT22;34352;51.084;3.712;2023-04-26T02:07:33;3.10;40.30
48575;DHT22;34352;51.084;3.712;2023-04-26T02:09:59;3.10;41.10
48575;DHT22;34352;51.084;3.712;2023-04-26T02:12:26;3.20;41.70
48575;DHT22;34352;51.084;3.712;2023-04-26T02:14:52;3.20;42.80
48575;DHT22;34352;51.084;3.712;2023-04-26T02:17:18;3.20;45.20
48575;DHT22;34352;51.084;3.712;2023-04-26T02:19:46;3.30;45.00
48575;DHT22;34352;51.084;3.712;2023-04-26T02:22:13;3.40;44.80
48575;DHT22;34352;51.084;3.712;2023-04-26T02:24:40;3.40;44.70
48575;DHT22;34352;51.084;3.712;2023-04-26T02:27:06;3.30;44.70
48575;DHT22;34352;51.084;3.712;2023-04-26T02:29:32;3.30;44.50
48575;DHT22;34352;51.084;3.712;2023-04-26T02:31:57;3.30;45.00
48575;DHT22;34352;51.084;3.712;2023-04-26T02:34:23;3.30;45.90
48575;DHT22;34352;51.084;3.712;2023-04-26T02:36:49;3.20;47.00
48575;DHT22;34352;51.084;3.712;2023-04-26T02:39:14;3.30;48.20
48575;DHT22;34352;51.084;3.712;2023-04-26T02:41:42;3.30;49.60
48575;DHT22;34352;51.084;3.712;2023-04-26T02:44:07;3.40;49.70
48575;DHT22;34352;51.084;3.712;2023-04-26T02:46:33;3.40;49.90
48575;DHT22;34352;51.084;3.712;2023-04-26T02:49:00;3.50;50.70
48575;DHT22;34352;51.084;3.712;2023-04-26T02:51:25;3.50;50.70
48575;DHT22;34352;51.084;3.712;2023-04-26T02:53:51;4.20;51.70
48575;DHT22;34352;51.084;3.712;2023-04-26T02:56:17;3.50;50.40
48575;DHT22;34352;51.084;3.712;2023-04-26T02:58:44;3.50;51.10
48575;DHT22;34352;51.084;3.712;2023-04-26T03:01:09;3.50;49.40
48575;DHT22;34352;51.084;3.712;2023-04-26T03:03:36;3.50;48.50
48575;DHT22;34352;51.084;3.712;2023-04-26T03:06:02;3.40;46.90
48575;DHT22;34352;51.084;3.712;2023-04-26T03:08:28;3.40;46.10
48575;DHT22;34352;51.084;3.712;2023-04-26T03:10:54;4.00;45.90
48575;DHT22;34352;51.084;3.712;2023-04-26T03:13:22;3.60;44.80
48575;DHT22;34352;51.084;3.712;2023-04-26T03:15:48;3.40;44.40
48575;DHT22;34352;51.084;3.712;2023-04-26T03:18:14;3.30;43.00
48575;DHT22;34352;51.084;3.712;2023-04-26T03:20:41;3.30;43.20
48575;DHT22;34352;51.084;3.712;2023-04-26T03:23:06;3.20;44.60
48575;DHT22;34352;51.084;3.712;2023-04-26T03:25:32;4.50;45.80
48575;DHT22;34352;51.084;3.712;2023-04-26T03:27:58;3.20;45.60
48575;DHT22;34352;51.084;3.712;2023-04-26T03:30:26;3.20;47.60
48575;DHT22;34352;51.084;3.712;2023-04-26T03:32:52;3.20;48.70
48575;DHT22;34352;51.084;3.712;2023-04-26T03:35:18;3.20;49.30
48575;DHT22;34352;51.084;3.712;2023-04-26T03:37:44;3.20;49.20
48575;DHT22;34352;51.084;3.712;2023-04-26T03:40:10;3.60;50.20
48575;DHT22;34352;51.084;3.712;2023-04-26T03:42:37;3.30;49.90
48575;DHT22;34352;51.084;3.712;2023-04-26T03:45:04;3.30;49.60
48575;DHT22;34352;51.084;3.712;2023-04-26T03:47:30;3.30;50.20
48575;DHT22;34352;51.084;3.712;2023-04-26T03:49:56;3.30;49.70
48575;DHT22;34352;51.084;3.712;2023-04-26T03:52:22;3.30;51.70
48575;DHT22;34352;51.084;3.712;2023-04-26T03:54:48;3.90;53.30
48575;DHT22;34352;51.084;3.712;2023-04-26T03:57:14;3.60;54.70
48575;DHT22;34352;51.084;3.712;2023-04-26T03:59:40;3.30;54.60
48575;DHT22;34352;51.084;3.712;2023-04-26T04:02:06;3.40;55.00
48575;DHT22;34352;51.084;3.712;2023-04-26T04:04:32;3.50;54.50
48575;DHT22;34352;51.084;3.712;2023-04-26T04:06:58;3.50;53.40
48575;DHT22;34352;51.084;3.712;2023-04-26T04:09:50;4.00;52.40
48575;DHT22;34352;51.084;3.712;2023-04-26T04:12:16;3.50;52.20
48575;DHT22;34352;51.084;3.712;2023-04-26T04:14:43;3.50;52.40
48575;DHT22;34352;51.084;3.712;2023-04-26T04:17:08;3.50;52.60
48575;DHT22;34352;51.084;3.712;2023-04-26T04:19:36;3.70;52.40
48575;DHT22;34352;51.084;3.712;2023-04-26T04:22:01;4.00;52.10
48575;DHT22;34352;51.084;3.712;2023-04-26T04:24:27;3.60;50.90
48575;DHT22;34352;51.084;3.712;2023-04-26T04:26:54;3.60;51.20
48575;DHT22;34352;51.084;3.712;2023-04-26T04:29:20;3.60;51.00
48575;DHT22;34352;51.084;3.712;2023-04-26T04:31:46;3.90;49.90
48575;DHT22;34352;51.084;3.712;2023-04-26T04:34:12;4.10;50.20
48575;DHT22;34352;51.084;3.712;2023-04-26T04:36:39;3.60;49.60
48575;DHT22;34352;51.084;3.712;2023-04-26T04:39:05;3.60;50.60
48575;DHT22;34352;51.084;3.712;2023-04-26T04:41:37;4.40;51.80
48575;DHT22;34352;51.084;3.712;2023-04-26T04:44:04;3.60;50.40
48575;DHT22;34352;51.084;3.712;2023-04-26T04:46:36;3.60;51.00
48575;DHT22;34352;51.084;3.712;2023-04-26T04:49:03;3.50;52.30
48575;DHT22;34352;51.084;3.712;2023-04-26T04:51:30;3.70;52.70
48575;DHT22;34352;51.084;3.712;2023-04-26T04:53:57;3.60;53.10
48575;DHT22;34352;51.084;3.712;2023-04-26T04:56:22;3.60;53.10
48575;DHT22;34352;51.084;3.712;2023-04-26T04:58:49;3.60;53.20
48575;DHT22;34352;51.084;3.712;2023-04-26T05:01:15;5.00;54.50
48575;DHT22;34352;51.084;3.712;2023-04-26T05:03:40;3.80;54.50
48575;DHT22;34352;51.084;3.712;2023-04-26T05:06:11;3.90;54.90
48575;DHT22;34352;51.084;3.712;2023-04-26T05:08:40;4.00;56.20
48575;DHT22;34352;51.084;3.712;2023-04-26T05:11:06;4.70;57.30
48575;DHT22;34352;51.084;3.712;2023-04-26T05:13:35;5.20;57.70
48575;DHT22;34352;51.084;3.712;2023-04-26T05:16:34;4.50;56.00
48575;DHT22;34352;51.084;3.712;2023-04-26T05:19:14;4.80;52.80
48575;DHT22;34352;51.084;3.712;2023-04-26T05:21:40;5.00;50.10
48575;DHT22;34352;51.084;3.712;2023-04-26T05:24:11;5.40;42.50
48575;DHT22;34352;51.084;3.712;2023-04-26T05:26:39;5.40;37.80
48575;DHT22;34352;51.084;3.712;2023-04-26T05:29:29;5.70;30.50
48575;DHT22;34352;51.084;3.712;2023-04-26T05:31:55;6.00;26.60
48575;DHT22;34352;51.084;3.712;2023-04-26T05:34:22;6.30;21.30
48575;DHT22;34352;51.084;3.712;2023-04-26T05:36:48;6.20;15.60
48575;DHT22;34352;51.084;3.712;2023-04-26T05:39:14;6.20;13.40
48575;DHT22;34352;51.084;3.712;2023-04-26T05:41:40;6.80;9.50
48575;DHT22;34352;51.084;3.712;2023-04-26T05:44:06;6.60;1.00
48575;DHT22;34352;51.084;3.712;2023-04-26T05:46:35;6.80;1.00
48575;DHT22;34352;51.084;3.712;2023-04-26T05:49:02;7.10;1.00
48575;DHT22;34352;51.084;3.712;2023-04-26T05:51:29;7.20;1.00
48575;DHT22;34352;51.084;3.712;2023-04-26T05:53:59;7.60;1.00
48575;DHT22;34352;51.084;3.712;2023-04-26T05:56:25;7.70;1.00
48575;DHT22;34352;51.084;3.712;2023-04-26T05:58:51;7.70;1.00
48575;DHT22;34352;51.084;3.712;2023-04-26T06:01:17;7.60;1.00
48575;DHT22;34352;51.084;3.712;2023-04-26T06:03:45;8.70;1.00
48575;DHT22;34352;51.084;3.712;2023-04-26T06:06:11;8.00;1.00
48575;DHT22;34352;51.084;3.712;2023-04-26T06:08:36;8.20;1.00
48575;DHT22;34352;51.084;3.712;2023-04-26T06:11:03;8.20;1.00
48575;DHT22;34352;51.084;3.712;2023-04-26T06:13:29;8.10;1.00
48575;DHT22;34352;51.084;3.712;2023-04-26T06:15:54;9.00;1.00
48575;DHT22;34352;51.084;3.712;2023-04-26T06:18:20;8.10;1.00
48575;DHT22;34352;51.084;3.712;2023-04-26T06:20:46;8.40;1.00
48575;DHT22;34352;51.084;3.712;2023-04-26T06:23:11;8.30;1.00
48575;DHT22;34352;51.084;3.712;2023-04-26T06:25:37;8.20;1.00
48575;DHT22;34352;51.084;3.712;2023-04-26T06:28:08;8.30;1.00
48575;DHT22;34352;51.084;3.712;2023-04-26T06:30:41;8.40;1.00
48575;DHT22;34352;51.084;3.712;2023-04-26T06:33:07;8.40;1.00
48575;DHT22;34352;51.084;3.712;2023-04-26T06:35:43;9.20;1.00
48575;DHT22;34352;51.084;3.712;2023-04-26T06:38:09;9.30;1.00
48575;DHT22;34352;51.084;3.712;2023-04-26T06:40:39;9.60;1.00
48575;DHT22;34352;51.084;3.712;2023-04-26T06:43:05;9.90;1.00
48575;DHT22;34352;51.084;3.712;2023-04-26T06:45:31;9.80;99.90
48575;DHT22;34352;51.084;3.712;2023-04-26T06:47:57;9.70;99.90
48575;DHT22;34352;51.084;3.712;2023-04-26T06:50:26;9.60;99.90
48575;DHT22;34352;51.084;3.712;2023-04-26T06:52:53;9.40;99.90
48575;DHT22;34352;51.084;3.712;2023-04-26T06:55:18;9.30;99.90
48575;DHT22;34352;51.084;3.712;2023-04-26T06:57:44;9.10;99.90
48575;DHT22;34352;51.084;3.712;2023-04-26T07:00:11;9.10;99.90
48575;DHT22;34352;51.084;3.712;2023-04-26T07:02:38;9.10;99.90
48575;DHT22;34352;51.084;3.712;2023-04-26T07:05:04;9.30;99.90
48575;DHT22;34352;51.084;3.712;2023-04-26T07:07:29;9.40;99.90
48575;DHT22;34352;51.084;3.712;2023-04-26T07:09:55;9.70;99.90
48575;DHT22;34352;51.084;3.712;2023-04-26T07:12:21;9.90;99.90
48575;DHT22;34352;51.084;3.712;2023-04-26T07:14:47;10.00;99.90
48575;DHT22;34352;51.084;3.712;2023-04-26T07:17:12;10.10;99.90
48575;DHT22;34352;51.084;3.712;2023-04-26T07:19:38;10.20;99.90
48575;DHT22;34352;51.084;3.712;2023-04-26T07:22:05;10.40;99.90
48575;DHT22;34352;51.084;3.712;2023-04-26T07:24:31;10.40;99.90
48575;DHT22;34352;51.084;3.712;2023-04-26T07:26:56;10.60;99.90
48575;DHT22;34352;51.084;3.712;2023-04-26T07:29:23;10.80;99.90
48575;DHT22;34352;51.084;3.712;2023-04-26T07:31:50;10.70;99.90
48575;DHT22;34352;51.084;3.712;2023-04-26T07:34:16;11.00;99.90
48575;DHT22;34352;51.084;3.712;2023-04-26T07:36:43;11.10;99.90
48575;DHT22;34352;51.084;3.712;2023-04-26T07:39:08;11.40;99.90
48575;DHT22;34352;51.084;3.712;2023-04-26T07:41:35;11.60;99.90
48575;DHT22;34352;51.084;3.712;2023-04-26T07:44:03;11.80;99.90
48575;DHT22;34352;51.084;3.712;2023-04-26T07:46:28;12.40;99.90
48575;DHT22;34352;51.084;3.712;2023-04-26T07:48:57;13.10;99.90
48575;DHT22;34352;51.084;3.712;2023-04-26T07:51:29;13.20;99.90
48575;DHT22;34352;51.084;3.712;2023-04-26T07:53:59;13.70;99.90
48575;DHT22;34352;51.084;3.712;2023-04-26T07:56:37;14.90;99.90
48575;DHT22;34352;51.084;3.712;2023-04-26T07:59:04;16.10;99.90
48575;DHT22;34352;51.084;3.712;2023-04-26T08:04:34;16.70;99.90
48575;DHT22;34352;51.084;3.712;2023-04-26T08:07:01;17.90;99.90
48575;DHT22;34352;51.084;3.712;2023-04-26T08:09:51;17.50;99.90
48575;DHT22;34352;51.084;3.712;2023-04-26T08:12:16;16.80;99.90
48575;DHT22;34352;51.084;3.712;2023-04-26T08:14:42;16.10;99.90
48575;DHT22;34352;51.084;3.712;2023-04-26T08:17:09;16.20;99.90
48575;DHT22;34352;51.084;3.712;2023-04-26T08:19:35;16.10;99.90
48575;DHT22;34352;51.084;3.712;2023-04-26T08:22:01;16.00;99.90
48575;DHT22;34352;51.084;3.712;2023-04-26T08:24:27;15.80;99.90
48575;DHT22;34352;51.084;3.712;2023-04-26T08:26:54;16.00;99.90
48575;DHT22;34352;51.084;3.712;2023-04-26T08:29:20;16.30;99.90
48575;DHT22;34352;51.084;3.712;2023-04-26T08:31:47;16.40;99.90
48575;DHT22;34352;51.084;3.712;2023-04-26T08:34:12;16.80;99.90
48575;DHT22;34352;51.084;3.712;2023-04-26T08:36:41;16.90;99.90
48575;DHT22;34352;51.084;3.712;2023-04-26T08:39:07;16.80;99.90
48575;DHT22;34352;51.084;3.712;2023-04-26T08:41:37;16.20;99.90
48575;DHT22;34352;51.084;3.712;2023-04-26T08:44:07;16.10;99.90
48575;DHT22;34352;51.084;3.712;2023-04-26T08:46:43;16.10;99.90
48575;DHT22;34352;51.084;3.712;2023-04-26T08:49:26;16.10;99.90
48575;DHT22;34352;51.084;3.712;2023-04-26T08:51:55;16.00;99.90
48575;DHT22;34352;51.084;3.712;2023-04-26T08:54:23;16.20;99.90
48575;DHT22;34352;51.084;3.712;2023-04-26T08:56:52;16.20;99.90
48575;DHT22;34352;51.084;3.712;2023-04-26T08:59:19;16.70;99.90
48575;DHT22;34352;51.084;3.712;2023-04-26T09:01:47;17.50;99.90
48575;DHT22;34352;51.084;3.712;2023-04-26T09:04:15;17.40;99.90
48575;DHT22;34352;51.084;3.712;2023-04-26T09:06:42;17.20;99.90
48575;DHT22;34352;51.084;3.712;2023-04-26T09:09:11;17.40;99.90
48575;DHT22;34352;51.084;3.712;2023-04-26T09:11:58;17.30;99.90
48575;DHT22;34352;51.084;3.712;2023-04-26T09:14:25;17.20;99.90
48575;DHT22;34352;51.084;3.712;2023-04-26T09:16:51;18.00;99.90
48575;DHT22;34352;51.084;3.712;2023-04-26T09:19:17;18.30;99.90
48575;DHT22;34352;51.084;3.712;2023-04-26T09:21:56;18.00;99.90
48575;DHT22;34352;51.084;3.712;2023-04-26T09:24:22;17.90;99.90
48575;DHT22;34352;51.084;3.712;2023-04-26T09:27:00;17.80;99.90
48575;DHT22;34352;51.084;3.712;2023-04-26T09:29:27;17.60;99.90
48575;DHT22;34352;51.084;3.712;2023-04-26T09:31:53;17.00;99.90
48575;DHT22;34352;51.084;3.712;2023-04-26T09:34:21;16.30;99.90
48575;DHT22;34352;51.084;3.712;2023-04-26T09:36:54;16.60;99.90
48575;DHT22;34352;51.084;3.712;2023-04-26T09:39:30;17.40;99.90
48575;DHT22;34352;51.084;3.712;2023-04-26T09:41:58;18.30;99.90
48575;DHT22;34352;51.084;3.712;2023-04-26T09:44:25;19.00;99.90
48575;DHT22;34352;51.084;3.712;2023-04-26T09:49:48;19.60;99.90
48575;DHT22;34352;51.084;3.712;2023-04-26T09:52:15;19.80;99.90
48575;DHT22;34352;51.084;3.712;2023-04-26T09:54:52;19.70;99.90
48575;DHT22;34352;51.084;3.712;2023-04-26T09:57:20;19.20;99.90
48575;DHT22;34352;51.084;3.712;2023-04-26T09:59:50;19.50;99.90
48575;DHT22;34352;51.084;3.712;2023-04-26T10:02:20;20.00;99.90
48575;DHT22;34352;51.084;3.712;2023-04-26T10:04:50;20.30;99.90
48575;DHT22;34352;51.084;3.712;2023-04-26T10:07:19;19.50;99.90
48575;DHT22;34352;51.084;3.712;2023-04-26T10:09:46;19.50;99.90
48575;DHT22;34352;51.084;3.712;2023-04-26T10:12:15;19.80;99.90
48575;DHT22;34352;51.084;3.712;2023-04-26T10:14:42;19.90;99.90
48575;DHT22;34352;51.084;3.712;2023-04-26T10:17:10;20.10;99.90
48575;DHT22;34352;51.084;3.712;2023-04-26T10:19:38;19.90;99.90
48575;DHT22;34352;51.084;3.712;2023-04-26T10:22:08;19.40;99.90
48575;DHT22;34352;51.084;3.712;2023-04-26T10:24:36;18.30;99.90
48575;DHT22;34352;51.084;3.712;2023-04-26T10:27:02;18.10;99.90
48575;DHT22;34352;51.084;3.712;2023-04-26T10:32:22;17.50;99.90
48575;DHT22;34352;51.084;3.712;2023-04-26T10:35:10;17.60;99.90
48575;DHT22;34352;51.084;3.712;2023-04-26T10:45:42;16.60;99.90
48575;DHT22;34352;51.084;3.712;2023-04-26T10:48:19;16.70;99.90
48575;DHT22;34352;51.084;3.712;2023-04-26T10:51:11;17.80;99.90
48575;DHT22;34352;51.084;3.712;2023-04-26T10:56:49;20.00;99.90
48575;DHT22;34352;51.084;3.712;2023-04-26T10:59:21;20.70;99.90
48575;DHT22;34352;51.084;3.712;2023-04-26T11:02:03;20.70;99.90
48575;DHT22;34352;51.084;3.712;2023-04-26T11:04:51;21.20;99.90
48575;DHT22;34352;51.084;3.712;2023-04-26T11:07:35;22.10;99.90
48575;DHT22;34352;51.084;3.712;2023-04-26T11:10:02;22.10;99.90
48575;DHT22;34352;51.084;3.712;2023-04-26T11:12:28;21.50;99.90
48575;DHT22;34352;51.084;3.712;2023-04-26T11:14:54;21.60;99.90
48575;DHT22;34352;51.084;3.712;2023-04-26T11:17:21;22.00;99.90
48575;DHT22;34352;51.084;3.712;2023-04-26T11:19:47;22.00;99.90
48575;DHT22;34352;51.084;3.712;2023-04-26T11:22:12;22.90;99.90
48575;DHT22;34352;51.084;3.712;2023-04-26T11:24:38;23.30;99.90
48575;DHT22;34352;51.084;3.712;2023-04-26T11:27:08;22.60;1.00
48575;DHT22;34352;51.084;3.712;2023-04-26T11:29:36;21.20;1.00
48575;DHT22;34352;51.084;3.712;2023-04-26T11:32:02;20.20;1.00
48575;DHT22;34352;51.084;3.712;2023-04-26T11:34:31;19.00;99.90
48575;DHT22;34352;51.084;3.712;2023-04-26T11:36:58;18.60;99.90
48575;DHT22;34352;51.084;3.712;2023-04-26T11:39:24;18.30;99.90
48575;DHT22;34352;51.084;3.712;2023-04-26T11:41:50;18.80;99.90
48575;DHT22;34352;51.084;3.712;2023-04-26T11:44:19;19.10;99.90
48575;DHT22;34352;51.084;3.712;2023-04-26T11:46:47;19.10;99.90
48575;DHT22;34352;51.084;3.712;2023-04-26T11:49:14;20.00;99.90
48575;DHT22;34352;51.084;3.712;2023-04-26T11:51:40;19.80;99.90
48575;DHT22;34352;51.084;3.712;2023-04-26T11:54:06;19.40;99.90
48575;DHT22;34352;51.084;3.712;2023-04-26T11:56:33;19.80;99.90
48575;DHT22;34352;51.084;3.712;2023-04-26T11:58:58;19.80;99.90
48575;DHT22;34352;51.084;3.712;2023-04-26T12:01:28;20.00;99.90
48575;DHT22;34352;51.084;3.712;2023-04-26T12:03:56;20.10;99.90
48575;DHT22;34352;51.084;3.712;2023-04-26T12:06:42;20.10;99.90
48575;DHT22;34352;51.084;3.712;2023-04-26T12:09:08;19.60;99.90
48575;DHT22;34352;51.084;3.712;2023-04-26T12:11:34;19.60;99.90
48575;DHT22;34352;51.084;3.712;2023-04-26T12:14:01;18.80;99.90
48575;DHT22;34352;51.084;3.712;2023-04-26T12:16:26;18.30;99.90
48575;DHT22;34352;51.084;3.712;2023-04-26T12:18:54;17.30;99.90
48575;DHT22;34352;51.084;3.712;2023-04-26T12:21:21;17.10;99.90
48575;DHT22;34352;51.084;3.712;2023-04-26T12:23:50;17.30;99.90
48575;DHT22;34352;51.084;3.712;2023-04-26T12:26:16;18.00;99.90
48575;DHT22;34352;51.084;3.712;2023-04-26T12:28:42;18.50;99.90
48575;DHT22;34352;51.084;3.712;2023-04-26T12:31:08;19.00;99.90
48575;DHT22;34352;51.084;3.712;2023-04-26T12:33:34;18.30;99.90
48575;DHT22;34352;51.084;3.712;2023-04-26T12:36:10;18.20;99.90
48575;DHT22;34352;51.084;3.712;2023-04-26T12:38:37;18.60;99.90
48575;DHT22;34352;51.084;3.712;2023-04-26T12:41:03;18.70;99.90
48575;DHT22;34352;51.084;3.712;2023-04-26T12:43:29;18.70;99.90
48575;DHT22;34352;51.084;3.712;2023-04-26T12:45:55;19.10;99.90
48575;DHT22;34352;51.084;3.712;2023-04-26T12:48:22;18.50;99.90
48575;DHT22;34352;51.084;3.712;2023-04-26T12:50:48;17.90;99.90
48575;DHT22;34352;51.084;3.712;2023-04-26T12:53:14;17.90;99.90
48575;DHT22;34352;51.084;3.712;2023-04-26T12:55:42;16.70;1.00
48575;DHT22;34352;51.084;3.712;2023-04-26T12:58:09;16.80;99.90
48575;DHT22;34352;51.084;3.712;2023-04-26T13:00:35;16.90;1.00
48575;DHT22;34352;51.084;3.712;2023-04-26T13:03:01;17.00;99.90
48575;DHT22;34352;51.084;3.712;2023-04-26T13:05:35;17.10;99.90
48575;DHT22;34352;51.084;3.712;2023-04-26T13:08:01;17.00;99.90
48575;DHT22;34352;51.084;3.712;2023-04-26T13:10:27;16.80;99.90
48575;DHT22;34352;51.084;3.712;2023-04-26T13:12:53;16.40;99.90
48575;DHT22;34352;51.084;3.712;2023-04-26T13:15:19;16.50;99.90
48575;DHT22;34352;51.084;3.712;2023-04-26T13:17:52;17.00;99.90
48575;DHT22;34352;51.084;3.712;2023-04-26T13:20:37;17.50;99.90
48575;DHT22;34352;51.084;3.712;2023-04-26T13:23:04;18.60;1.00
48575;DHT22;34352;51.084;3.712;2023-04-26T13:28:56;20.30;99.90
48575;DHT22;34352;51.084;3.712;2023-04-26T13:31:26;20.70;1.00
48575;DHT22;34352;51.084;3.712;2023-04-26T13:34:09;20.70;99.90
48575;DHT22;34352;51.084;3.712;2023-04-26T13:36:38;21.10;1.00
48575;DHT22;34352;51.084;3.712;2023-04-26T13:39:03;21.20;1.00
48575;DHT22;34352;51.084;3.712;2023-04-26T13:41:30;20.60;1.00
48575;DHT22;34352;51.084;3.712;2023-04-26T13:43:58;20.10;1.00
48575;DHT22;34352;51.084;3.712;2023-04-26T13:46:27;20.10;1.00
48575;DHT22;34352;51.084;3.712;2023-04-26T13:49:13;19.80;1.00
48575;DHT22;34352;51.084;3.712;2023-04-26T13:55:03;19.50;1.00
48575;DHT22;34352;51.084;3.712;2023-04-26T14:00:49;19.70;1.00
48575;DHT22;34352;51.084;3.712;2023-04-26T14:03:15;19.50;1.00
48575;DHT22;34352;51.084;3.712;2023-04-26T14:05:42;19.40;99.90
48575;DHT22;34352;51.084;3.712;2023-04-26T14:08:07;19.50;99.90
48575;DHT22;34352;51.084;3.712;2023-04-26T14:10:33;19.40;1.00
48575;DHT22;34352;51.084;3.712;2023-04-26T14:12:59;19.30;1.00
48575;DHT22;34352;51.084;3.712;2023-04-26T14:15:25;19.10;1.00
48575;DHT22;34352;51.084;3.712;2023-04-26T14:17:50;18.40;1.00
48575;DHT22;34352;51.084;3.712;2023-04-26T14:20:16;18.90;1.00
48575;DHT22;34352;51.084;3.712;2023-04-26T14:22:42;19.20;1.00
48575;DHT22;34352;51.084;3.712;2023-04-26T14:25:31;18.90;1.00
48575;DHT22;34352;51.084;3.712;2023-04-26T14:28:00;18.70;1.00
48575;DHT22;34352;51.084;3.712;2023-04-26T14:30:54;18.60;99.90
48575;DHT22;34352;51.084;3.712;2023-04-26T14:33:28;18.70;1.00
48575;DHT22;34352;51.084;3.712;2023-04-26T14:36:08;18.20;1.00
48575;DHT22;34352;51.084;3.712;2023-04-26T14:38:35;17.70;1.00
48575;DHT22;34352;51.084;3.712;2023-04-26T14:41:37;17.70;99.90
48575;DHT22;34352;51.084;3.712;2023-04-26T14:44:23;17.40;1.00
48575;DHT22;34352;51.084;3.712;2023-04-26T14:46:48;17.10;99.90
48575;DHT22;34352;51.084;3.712;2023-04-26T14:49:16;16.20;99.90
48575;DHT22;34352;51.084;3.712;2023-04-26T14:51:42;16.20;99.90
48575;DHT22;34352;51.084;3.712;2023-04-26T14:54:09;16.40;99.90
48575;DHT22;34352;51.084;3.712;2023-04-26T14:56:36;16.40;99.90
48575;DHT22;34352;51.084;3.712;2023-04-26T14:59:02;16.50;99.90
48575;DHT22;34352;51.084;3.712;2023-04-26T15:01:34;16.60;99.90
48575;DHT22;34352;51.084;3.712;2023-04-26T15:04:00;16.70;99.90
48575;DHT22;34352;51.084;3.712;2023-04-26T15:06:26;16.80;99.90
48575;DHT22;34352;51.084;3.712;2023-04-26T15:08:54;16.40;99.90
48575;DHT22;34352;51.084;3.712;2023-04-26T15:11:19;16.40;99.90
48575;DHT22;34352;51.084;3.712;2023-04-26T15:13:46;16.60;99.90
48575;DHT22;34352;51.084;3.712;2023-04-26T15:16:14;16.80;99.90
48575;DHT22;34352;51.084;3.712;2023-04-26T15:18:40;16.60;99.90
48575;DHT22;34352;51.084;3.712;2023-04-26T15:21:06;16.20;99.90
48575;DHT22;34352;51.084;3.712;2023-04-26T15:23:33;16.20;99.90
48575;DHT22;34352;51.084;3.712;2023-04-26T15:26:02;16.10;99.90
48575;DHT22;34352;51.084;3.712;2023-04-26T15:28:28;16.00;99.90
48575;DHT22;34352;51.084;3.712;2023-04-26T15:31:08;15.60;99.90
48575;DHT22;34352;51.084;3.712;2023-04-26T15:33:35;15.60;99.90
48575;DHT22;34352;51.084;3.712;2023-04-26T15:36:01;15.50;99.90
48575;DHT22;34352;51.084;3.712;2023-04-26T15:38:26;15.40;99.90
48575;DHT22;34352;51.084;3.712;2023-04-26T15:40:52;15.40;99.90
48575;DHT22;34352;51.084;3.712;2023-04-26T15:43:18;15.20;99.90
48575;DHT22;34352;51.084;3.712;2023-04-26T15:45:44;15.20;99.90
48575;DHT22;34352;51.084;3.712;2023-04-26T15:48:11;15.00;99.90
48575;DHT22;34352;51.084;3.712;2023-04-26T15:50:37;15.20;99.90
48575;DHT22;34352;51.084;3.712;2023-04-26T15:53:03;15.20;99.90
48575;DHT22;34352;51.084;3.712;2023-04-26T15:55:31;14.80;99.90
48575;DHT22;34352;51.084;3.712;2023-04-26T15:57:57;14.50;99.90
48575;DHT22;34352;51.084;3.712;2023-04-26T16:00:23;14.20;99.90
48575;DHT22;34352;51.084;3.712;2023-04-26T16:02:50;14.10;99.90
48575;DHT22;34352;51.084;3.712;2023-04-26T16:05:17;14.20;99.90
48575;DHT22;34352;51.084;3.712;2023-04-26T16:07:43;13.90;99.90
48575;DHT22;34352;51.084;3.712;2023-04-26T16:10:09;14.10;99.90
48575;DHT22;34352;51.084;3.712;2023-04-26T16:12:35;14.20;99.90
48575;DHT22;34352;51.084;3.712;2023-04-26T16:15:08;14.00;99.90
48575;DHT22;34352;51.084;3.712;2023-04-26T16:17:35;13.90;99.90